sensor_id;sensor_type;location;lat;lon;timestamp;temperature;humidity
25949;DHT22;13961;51.178;4.448;2022-07-29T00:01:48;19.40;99.90
25949;DHT22;13961;51.178;4.448;2022-07-29T00:04:13;19.20;99.90
25949;DHT22;13961;51.178;4.448;2022-07-29T00:06:40;19.00;99.90
25949;DHT22;13961;51.178;4.448;2022-07-29T00:09:06;19.10;99.90
25949;DHT22;13961;51.178;4.448;2022-07-29T00:11:32;19.20;99.90
25949;DHT22;13961;51.178;4.448;2022-07-29T00:13:58;19.20;99.90
25949;DHT22;13961;51.178;4.448;2022-07-29T00:16:23;19.30;99.90
25949;DHT22;13961;51.178;4.448;2022-07-29T00:18:49;19.30;99.90
25949;DHT22;13961;51.178;4.448;2022-07-29T00:21:15;19.30;99.90
25949;DHT22;13961;51.178;4.448;2022-07-29T00:23:40;19.30;99.90
25949;DHT22;13961;51.178;4.448;2022-07-29T00:26:06;19.20;99.90
25949;DHT22;13961;51.178;4.448;2022-07-29T00:28:32;19.10;99.90
25949;DHT22;13961;51.178;4.448;2022-07-29T00:30:57;19.20;99.90
25949;DHT22;13961;51.178;4.448;2022-07-29T00:33:23;19.30;99.90
25949;DHT22;13961;51.178;4.448;2022-07-29T00:35:49;19.20;99.90
25949;DHT22;13961;51.178;4.448;2022-07-29T00:38:17;19.10;99.90
25949;DHT22;13961;51.178;4.448;2022-07-29T00:40:43;19.10;99.90
25949;DHT22;13961;51.178;4.448;2022-07-29T00:43:10;19.20;99.90
25949;DHT22;13961;51.178;4.448;2022-07-29T00:45:36;19.20;99.90
25949;DHT22;13961;51.178;4.448;2022-07-29T00:48:02;19.20;99.90
25949;DHT22;13961;51.178;4.448;2022-07-29T00:50:30;19.10;99.90
25949;DHT22;13961;51.178;4.448;2022-07-29T00:52:56;19.20;99.90
25949;DHT22;13961;51.178;4.448;2022-07-29T00:55:22;19.30;99.90
25949;DHT22;13961;51.178;4.448;2022-07-29T00:57:48;19.30;99.90
25949;DHT22;13961;51.178;4.448;2022-07-29T01:00:21;19.40;99.90
25949;DHT22;13961;51.178;4.448;2022-07-29T01:02:48;19.40;99.90
25949;DHT22;13961;51.178;4.448;2022-07-29T01:05:16;19.60;99.90
25949;DHT22;13961;51.178;4.448;2022-07-29T01:07:42;19.50;99.90
25949;DHT22;13961;51.178;4.448;2022-07-29T01:10:09;19.50;99.90
25949;DHT22;13961;51.178;4.448;2022-07-29T01:12:38;19.40;99.90
25949;DHT22;13961;51.178;4.448;2022-07-29T01:15:06;19.20;99.90
25949;DHT22;13961;51.178;4.448;2022-07-29T01:20:05;19.20;99.90
25949;DHT22;13961;51.178;4.448;2022-07-29T01:28:04;19.20;99.90
25949;DHT22;13961;51.178;4.448;2022-07-29T01:30:35;19.20;99.90
25949;DHT22;13961;51.178;4.448;2022-07-29T01:33:07;19.00;99.90
25949;DHT22;13961;51.178;4.448;2022-07-29T01:35:39;19.00;99.90
25949;DHT22;13961;51.178;4.448;2022-07-29T01:38:19;18.70;99.90
25949;DHT22;13961;51.178;4.448;2022-07-29T01:40:56;18.60;99.90
25949;DHT22;13961;51.178;4.448;2022-07-29T01:43:31;18.70;99.90
25949;DHT22;13961;51.178;4.448;2022-07-29T01:46:01;18.70;99.90
25949;DHT22;13961;51.178;4.448;2022-07-29T01:48:40;18.80;99.90
25949;DHT22;13961;51.178;4.448;2022-07-29T01:51:19;18.60;99.90
25949;DHT22;13961;51.178;4.448;2022-07-29T01:53:56;18.60;99.90
25949;DHT22;13961;51.178;4.448;2022-07-29T01:56:24;18.70;99.90
25949;DHT22;13961;51.178;4.448;2022-07-29T01:58:52;18.70;99.90
25949;DHT22;13961;51.178;4.448;2022-07-29T02:01:20;18.50;99.90
25949;DHT22;13961;51.178;4.448;2022-07-29T02:03:48;18.40;99.90
25949;DHT22;13961;51.178;4.448;2022-07-29T02:06:17;18.40;99.90
25949;DHT22;13961;51.178;4.448;2022-07-29T02:08:45;18.20;99.90
25949;DHT22;13961;51.178;4.448;2022-07-29T02:11:11;18.20;99.90
25949;DHT22;13961;51.178;4.448;2022-07-29T02:13:38;18.40;99.90
25949;DHT22;13961;51.178;4.448;2022-07-29T02:16:06;18.50;99.90
25949;DHT22;13961;51.178;4.448;2022-07-29T02:18:33;18.40;99.90
25949;DHT22;13961;51.178;4.448;2022-07-29T02:21:03;18.30;99.90
25949;DHT22;13961;51.178;4.448;2022-07-29T02:23:30;18.20;99.90
25949;DHT22;13961;51.178;4.448;2022-07-29T02:25:59;18.10;99.90
25949;DHT22;13961;51.178;4.448;2022-07-29T02:28:27;18.00;99.90
25949;DHT22;13961;51.178;4.448;2022-07-29T02:30:58;17.80;99.90
25949;DHT22;13961;51.178;4.448;2022-07-29T02:33:24;18.00;99.90
25949;DHT22;13961;51.178;4.448;2022-07-29T02:35:51;17.90;99.90
25949;DHT22;13961;51.178;4.448;2022-07-29T02:38:18;17.80;99.90
25949;DHT22;13961;51.178;4.448;2022-07-29T02:41:10;17.90;99.90
25949;DHT22;13961;51.178;4.448;2022-07-29T02:43:38;17.90;99.90
25949;DHT22;13961;51.178;4.448;2022-07-29T02:46:05;17.80;99.90
25949;DHT22;13961;51.178;4.448;2022-07-29T02:48:55;17.90;99.90
25949;DHT22;13961;51.178;4.448;2022-07-29T02:51:31;17.80;99.90
25949;DHT22;13961;51.178;4.448;2022-07-29T02:54:00;18.00;99.90
25949;DHT22;13961;51.178;4.448;2022-07-29T02:56:30;18.00;99.90
25949;DHT22;13961;51.178;4.448;2022-07-29T02:59:03;17.90;99.90
25949;DHT22;13961;51.178;4.448;2022-07-29T03:01:31;17.70;99.90
25949;DHT22;13961;51.178;4.448;2022-07-29T03:04:01;17.80;99.90
25949;DHT22;13961;51.178;4.448;2022-07-29T03:06:28;17.90;99.90
25949;DHT22;13961;51.178;4.448;2022-07-29T03:08:56;17.90;99.90
25949;DHT22;13961;51.178;4.448;2022-07-29T03:11:23;17.80;99.90
25949;DHT22;13961;51.178;4.448;2022-07-29T03:13:50;17.50;99.90
25949;DHT22;13961;51.178;4.448;2022-07-29T03:16:16;17.70;99.90
25949;DHT22;13961;51.178;4.448;2022-07-29T03:18:43;17.70;99.90
25949;DHT22;13961;51.178;4.448;2022-07-29T03:21:09;17.60;99.90
25949;DHT22;13961;51.178;4.448;2022-07-29T03:23:35;17.50;99.90
25949;DHT22;13961;51.178;4.448;2022-07-29T03:26:00;17.40;99.90
25949;DHT22;13961;51.178;4.448;2022-07-29T03:28:26;17.40;99.90
25949;DHT22;13961;51.178;4.448;2022-07-29T03:30:53;17.50;99.90
25949;DHT22;13961;51.178;4.448;2022-07-29T03:33:18;17.50;99.90
25949;DHT22;13961;51.178;4.448;2022-07-29T03:35:44;17.60;99.90
25949;DHT22;13961;51.178;4.448;2022-07-29T03:38:10;17.70;99.90
25949;DHT22;13961;51.178;4.448;2022-07-29T03:40:49;17.90;99.90
25949;DHT22;13961;51.178;4.448;2022-07-29T03:43:17;17.80;99.90
25949;DHT22;13961;51.178;4.448;2022-07-29T03:45:47;17.80;99.90
25949;DHT22;13961;51.178;4.448;2022-07-29T03:48:16;17.70;99.90
25949;DHT22;13961;51.178;4.448;2022-07-29T03:50:43;17.50;99.90
25949;DHT22;13961;51.178;4.448;2022-07-29T03:53:08;17.40;99.90
25949;DHT22;13961;51.178;4.448;2022-07-29T03:55:41;17.30;99.90
25949;DHT22;13961;51.178;4.448;2022-07-29T03:58:07;17.40;99.90
25949;DHT22;13961;51.178;4.448;2022-07-29T04:00:34;17.20;99.90
25949;DHT22;13961;51.178;4.448;2022-07-29T04:03:01;17.20;99.90
25949;DHT22;13961;51.178;4.448;2022-07-29T04:05:28;17.20;99.90
25949;DHT22;13961;51.178;4.448;2022-07-29T04:07:53;16.90;99.90
25949;DHT22;13961;51.178;4.448;2022-07-29T04:10:19;17.00;99.90
25949;DHT22;13961;51.178;4.448;2022-07-29T04:12:45;17.10;99.90
25949;DHT22;13961;51.178;4.448;2022-07-29T04:15:11;17.00;99.90
25949;DHT22;13961;51.178;4.448;2022-07-29T04:17:37;16.90;99.90
25949;DHT22;13961;51.178;4.448;2022-07-29T04:20:03;17.10;99.90
25949;DHT22;13961;51.178;4.448;2022-07-29T04:22:29;17.20;99.90
25949;DHT22;13961;51.178;4.448;2022-07-29T04:24:55;17.30;99.90
25949;DHT22;13961;51.178;4.448;2022-07-29T04:27:21;17.30;99.90
25949;DHT22;13961;51.178;4.448;2022-07-29T04:29:47;17.20;99.90
25949;DHT22;13961;51.178;4.448;2022-07-29T04:32:12;17.30;99.90
25949;DHT22;13961;51.178;4.448;2022-07-29T04:34:38;17.20;99.90
25949;DHT22;13961;51.178;4.448;2022-07-29T04:37:03;17.30;99.90
25949;DHT22;13961;51.178;4.448;2022-07-29T04:39:29;17.40;99.90
25949;DHT22;13961;51.178;4.448;2022-07-29T04:41:55;17.40;99.90
25949;DHT22;13961;51.178;4.448;2022-07-29T04:44:20;17.30;99.90
25949;DHT22;13961;51.178;4.448;2022-07-29T04:46:46;17.40;99.90
25949;DHT22;13961;51.178;4.448;2022-07-29T04:49:12;17.50;99.90
25949;DHT22;13961;51.178;4.448;2022-07-29T04:51:38;17.40;99.90
25949;DHT22;13961;51.178;4.448;2022-07-29T04:54:04;17.40;99.90
25949;DHT22;13961;51.178;4.448;2022-07-29T04:56:29;17.50;99.90
25949;DHT22;13961;51.178;4.448;2022-07-29T04:58:55;17.70;99.90
25949;DHT22;13961;51.178;4.448;2022-07-29T05:01:21;17.70;99.90
25949;DHT22;13961;51.178;4.448;2022-07-29T05:03:46;17.70;99.90
25949;DHT22;13961;51.178;4.448;2022-07-29T05:06:12;17.80;99.90
25949;DHT22;13961;51.178;4.448;2022-07-29T05:08:37;17.80;99.90
25949;DHT22;13961;51.178;4.448;2022-07-29T05:11:03;17.80;99.90
25949;DHT22;13961;51.178;4.448;2022-07-29T05:13:29;17.90;99.90
25949;DHT22;13961;51.178;4.448;2022-07-29T05:15:55;17.90;99.90
25949;DHT22;13961;51.178;4.448;2022-07-29T05:18:21;17.80;99.90
25949;DHT22;13961;51.178;4.448;2022-07-29T05:20:46;17.70;99.90
25949;DHT22;13961;51.178;4.448;2022-07-29T05:23:12;17.50;99.90
25949;DHT22;13961;51.178;4.448;2022-07-29T05:25:38;17.50;99.90
25949;DHT22;13961;51.178;4.448;2022-07-29T05:28:04;17.50;99.90
25949;DHT22;13961;51.178;4.448;2022-07-29T05:30:29;17.40;99.90
25949;DHT22;13961;51.178;4.448;2022-07-29T05:32:55;17.30;99.90
25949;DHT22;13961;51.178;4.448;2022-07-29T05:35:21;17.40;99.90
25949;DHT22;13961;51.178;4.448;2022-07-29T05:37:46;17.40;99.90
25949;DHT22;13961;51.178;4.448;2022-07-29T05:40:12;17.20;99.90
25949;DHT22;13961;51.178;4.448;2022-07-29T05:42:38;17.30;99.90
25949;DHT22;13961;51.178;4.448;2022-07-29T05:45:04;17.50;99.90
25949;DHT22;13961;51.178;4.448;2022-07-29T05:47:30;17.70;99.90
25949;DHT22;13961;51.178;4.448;2022-07-29T05:49:56;17.90;99.90
25949;DHT22;13961;51.178;4.448;2022-07-29T05:52:21;18.00;99.90
25949;DHT22;13961;51.178;4.448;2022-07-29T05:54:47;18.20;99.90
25949;DHT22;13961;51.178;4.448;2022-07-29T05:57:20;18.20;99.90
25949;DHT22;13961;51.178;4.448;2022-07-29T05:59:48;17.90;99.90
25949;DHT22;13961;51.178;4.448;2022-07-29T06:02:14;18.10;99.90
25949;DHT22;13961;51.178;4.448;2022-07-29T06:04:39;18.40;99.90
25949;DHT22;13961;51.178;4.448;2022-07-29T06:07:05;18.70;99.90
25949;DHT22;13961;51.178;4.448;2022-07-29T06:09:31;18.80;99.90
25949;DHT22;13961;51.178;4.448;2022-07-29T06:11:57;18.50;99.90
25949;DHT22;13961;51.178;4.448;2022-07-29T06:14:24;18.70;99.90
25949;DHT22;13961;51.178;4.448;2022-07-29T06:16:49;19.10;99.90
25949;DHT22;13961;51.178;4.448;2022-07-29T06:19:15;19.40;99.90
25949;DHT22;13961;51.178;4.448;2022-07-29T06:21:44;19.70;99.90
25949;DHT22;13961;51.178;4.448;2022-07-29T06:24:14;20.00;99.90
25949;DHT22;13961;51.178;4.448;2022-07-29T06:26:40;20.00;99.90
25949;DHT22;13961;51.178;4.448;2022-07-29T06:29:09;20.00;99.90
25949;DHT22;13961;51.178;4.448;2022-07-29T06:31:36;19.90;99.90
25949;DHT22;13961;51.178;4.448;2022-07-29T06:34:02;19.60;99.90
25949;DHT22;13961;51.178;4.448;2022-07-29T06:36:28;19.70;99.90
25949;DHT22;13961;51.178;4.448;2022-07-29T06:38:53;19.70;99.90
25949;DHT22;13961;51.178;4.448;2022-07-29T06:41:19;20.00;99.90
25949;DHT22;13961;51.178;4.448;2022-07-29T06:43:45;21.10;99.90
25949;DHT22;13961;51.178;4.448;2022-07-29T06:46:14;22.40;99.90
25949;DHT22;13961;51.178;4.448;2022-07-29T06:48:41;22.90;99.90
25949;DHT22;13961;51.178;4.448;2022-07-29T06:51:10;24.60;99.90
25949;DHT22;13961;51.178;4.448;2022-07-29T06:53:39;26.00;99.90
25949;DHT22;13961;51.178;4.448;2022-07-29T06:56:06;26.40;99.90
25949;DHT22;13961;51.178;4.448;2022-07-29T06:58:34;26.80;99.30
25949;DHT22;13961;51.178;4.448;2022-07-29T07:01:04;27.80;97.90
25949;DHT22;13961;51.178;4.448;2022-07-29T07:03:31;28.30;96.50
25949;DHT22;13961;51.178;4.448;2022-07-29T07:05:56;28.90;95.60
25949;DHT22;13961;51.178;4.448;2022-07-29T07:08:23;29.30;95.30
25949;DHT22;13961;51.178;4.448;2022-07-29T07:10:49;29.60;94.40
25949;DHT22;13961;51.178;4.448;2022-07-29T07:13:15;29.70;93.90
25949;DHT22;13961;51.178;4.448;2022-07-29T07:15:43;30.00;93.60
25949;DHT22;13961;51.178;4.448;2022-07-29T07:18:09;29.50;93.70
25949;DHT22;13961;51.178;4.448;2022-07-29T07:20:35;29.70;93.80
25949;DHT22;13961;51.178;4.448;2022-07-29T07:23:01;29.70;93.30
25949;DHT22;13961;51.178;4.448;2022-07-29T07:25:27;29.90;92.80
25949;DHT22;13961;51.178;4.448;2022-07-29T07:27:53;28.40;94.20
25949;DHT22;13961;51.178;4.448;2022-07-29T07:30:18;29.20;94.10
25949;DHT22;13961;51.178;4.448;2022-07-29T07:32:44;30.30;93.00
25949;DHT22;13961;51.178;4.448;2022-07-29T07:35:10;31.20;91.80
25949;DHT22;13961;51.178;4.448;2022-07-29T07:37:36;31.70;91.60
25949;DHT22;13961;51.178;4.448;2022-07-29T07:40:03;32.50;90.50
25949;DHT22;13961;51.178;4.448;2022-07-29T07:42:28;32.10;90.00
25949;DHT22;13961;51.178;4.448;2022-07-29T07:44:54;32.60;89.20
25949;DHT22;13961;51.178;4.448;2022-07-29T07:47:21;32.90;89.00
25949;DHT22;13961;51.178;4.448;2022-07-29T07:49:50;33.30;88.50
25949;DHT22;13961;51.178;4.448;2022-07-29T07:52:17;33.20;87.20
25949;DHT22;13961;51.178;4.448;2022-07-29T07:54:43;33.40;86.20
25949;DHT22;13961;51.178;4.448;2022-07-29T07:57:13;32.90;86.60
25949;DHT22;13961;51.178;4.448;2022-07-29T07:59:39;33.10;85.40
25949;DHT22;13961;51.178;4.448;2022-07-29T08:02:05;32.70;86.80
25949;DHT22;13961;51.178;4.448;2022-07-29T08:04:31;32.50;87.10
25949;DHT22;13961;51.178;4.448;2022-07-29T08:06:58;32.90;86.60
25949;DHT22;13961;51.178;4.448;2022-07-29T08:09:25;32.90;85.10
25949;DHT22;13961;51.178;4.448;2022-07-29T08:11:51;33.50;83.20
25949;DHT22;13961;51.178;4.448;2022-07-29T08:14:17;33.70;83.60
25949;DHT22;13961;51.178;4.448;2022-07-29T08:16:43;34.30;83.10
25949;DHT22;13961;51.178;4.448;2022-07-29T08:19:09;34.40;81.90
25949;DHT22;13961;51.178;4.448;2022-07-29T08:21:35;34.20;82.40
25949;DHT22;13961;51.178;4.448;2022-07-29T08:24:01;34.50;81.50
25949;DHT22;13961;51.178;4.448;2022-07-29T08:26:46;34.00;81.20
25949;DHT22;13961;51.178;4.448;2022-07-29T08:29:11;34.10;81.80
25949;DHT22;13961;51.178;4.448;2022-07-29T08:31:37;33.60;81.90
25949;DHT22;13961;51.178;4.448;2022-07-29T08:34:04;33.10;83.10
25949;DHT22;13961;51.178;4.448;2022-07-29T08:36:30;33.50;82.10
25949;DHT22;13961;51.178;4.448;2022-07-29T08:38:56;34.00;80.60
25949;DHT22;13961;51.178;4.448;2022-07-29T08:41:22;33.70;81.50
25949;DHT22;13961;51.178;4.448;2022-07-29T08:43:49;33.70;81.50
25949;DHT22;13961;51.178;4.448;2022-07-29T08:46:15;33.10;82.00
25949;DHT22;13961;51.178;4.448;2022-07-29T08:48:42;33.60;82.00
25949;DHT22;13961;51.178;4.448;2022-07-29T08:51:08;33.50;81.40
25949;DHT22;13961;51.178;4.448;2022-07-29T08:53:34;32.40;82.70
25949;DHT22;13961;51.178;4.448;2022-07-29T08:56:00;32.60;83.40
25949;DHT22;13961;51.178;4.448;2022-07-29T08:58:31;32.30;82.30
25949;DHT22;13961;51.178;4.448;2022-07-29T09:01:01;32.50;82.20
25949;DHT22;13961;51.178;4.448;2022-07-29T09:03:31;32.50;83.50
25949;DHT22;13961;51.178;4.448;2022-07-29T09:06:01;31.90;83.40
25949;DHT22;13961;51.178;4.448;2022-07-29T09:08:27;31.10;86.10
25949;DHT22;13961;51.178;4.448;2022-07-29T09:10:54;31.50;85.00
25949;DHT22;13961;51.178;4.448;2022-07-29T09:13:21;31.40;84.20
25949;DHT22;13961;51.178;4.448;2022-07-29T09:15:48;31.90;85.50
25949;DHT22;13961;51.178;4.448;2022-07-29T09:18:34;32.60;84.30
25949;DHT22;13961;51.178;4.448;2022-07-29T09:21:01;32.20;82.90
25949;DHT22;13961;51.178;4.448;2022-07-29T09:24:08;32.10;82.80
25949;DHT22;13961;51.178;4.448;2022-07-29T09:26:37;31.10;85.20
25949;DHT22;13961;51.178;4.448;2022-07-29T09:29:18;31.40;83.70
25949;DHT22;13961;51.178;4.448;2022-07-29T09:31:46;31.00;84.90
25949;DHT22;13961;51.178;4.448;2022-07-29T09:34:14;30.70;84.90
25949;DHT22;13961;51.178;4.448;2022-07-29T09:36:41;30.40;85.20
25949;DHT22;13961;51.178;4.448;2022-07-29T09:39:07;29.70;86.90
25949;DHT22;13961;51.178;4.448;2022-07-29T09:41:50;29.10;89.20
25949;DHT22;13961;51.178;4.448;2022-07-29T09:44:18;28.80;87.70
25949;DHT22;13961;51.178;4.448;2022-07-29T09:47:03;28.40;89.00
25949;DHT22;13961;51.178;4.448;2022-07-29T09:49:32;27.60;87.30
25949;DHT22;13961;51.178;4.448;2022-07-29T09:52:03;27.40;90.70
25949;DHT22;13961;51.178;4.448;2022-07-29T09:54:29;27.30;90.30
25949;DHT22;13961;51.178;4.448;2022-07-29T09:56:59;27.30;90.50
25949;DHT22;13961;51.178;4.448;2022-07-29T09:59:25;27.10;89.70
25949;DHT22;13961;51.178;4.448;2022-07-29T10:01:52;26.90;90.50
25949;DHT22;13961;51.178;4.448;2022-07-29T10:04:18;26.70;90.10
25949;DHT22;13961;51.178;4.448;2022-07-29T10:07:00;26.80;89.60
25949;DHT22;13961;51.178;4.448;2022-07-29T10:09:26;26.90;91.30
25949;DHT22;13961;51.178;4.448;2022-07-29T10:12:09;27.10;91.10
25949;DHT22;13961;51.178;4.448;2022-07-29T10:14:36;27.30;89.80
25949;DHT22;13961;51.178;4.448;2022-07-29T10:17:03;27.10;90.60
25949;DHT22;13961;51.178;4.448;2022-07-29T10:19:30;27.00;89.90
25949;DHT22;13961;51.178;4.448;2022-07-29T10:21:58;27.20;89.10
25949;DHT22;13961;51.178;4.448;2022-07-29T10:24:28;27.50;90.10
25949;DHT22;13961;51.178;4.448;2022-07-29T10:26:56;27.70;88.20
25949;DHT22;13961;51.178;4.448;2022-07-29T10:29:22;27.70;87.70
25949;DHT22;13961;51.178;4.448;2022-07-29T10:34:57;27.50;88.50
25949;DHT22;13961;51.178;4.448;2022-07-29T10:40:39;27.30;89.10
25949;DHT22;13961;51.178;4.448;2022-07-29T10:43:33;27.50;89.30
25949;DHT22;13961;51.178;4.448;2022-07-29T10:46:02;27.40;87.20
25949;DHT22;13961;51.178;4.448;2022-07-29T10:48:28;27.30;87.80
25949;DHT22;13961;51.178;4.448;2022-07-29T10:51:02;26.90;90.10
25949;DHT22;13961;51.178;4.448;2022-07-29T10:53:48;26.40;90.10
25949;DHT22;13961;51.178;4.448;2022-07-29T11:01:54;27.30;90.10
25949;DHT22;13961;51.178;4.448;2022-07-29T11:07:17;26.50;91.10
25949;DHT22;13961;51.178;4.448;2022-07-29T11:09:43;26.80;91.50
25949;DHT22;13961;51.178;4.448;2022-07-29T11:15:01;26.80;90.80
25949;DHT22;13961;51.178;4.448;2022-07-29T11:17:28;26.80;89.30
25949;DHT22;13961;51.178;4.448;2022-07-29T11:22:57;27.20;89.10
25949;DHT22;13961;51.178;4.448;2022-07-29T11:25:23;27.30;90.20
25949;DHT22;13961;51.178;4.448;2022-07-29T11:27:49;27.40;89.50
25949;DHT22;13961;51.178;4.448;2022-07-29T11:30:16;27.40;88.10
25949;DHT22;13961;51.178;4.448;2022-07-29T11:32:43;27.70;87.50
25949;DHT22;13961;51.178;4.448;2022-07-29T11:35:20;27.80;86.30
25949;DHT22;13961;51.178;4.448;2022-07-29T11:38:26;27.60;89.10
25949;DHT22;13961;51.178;4.448;2022-07-29T11:44:09;27.00;88.10
25949;DHT22;13961;51.178;4.448;2022-07-29T11:46:47;27.30;89.30
25949;DHT22;13961;51.178;4.448;2022-07-29T11:49:26;27.40;87.90
25949;DHT22;13961;51.178;4.448;2022-07-29T11:51:56;27.50;87.00
25949;DHT22;13961;51.178;4.448;2022-07-29T11:54:32;27.60;87.30
25949;DHT22;13961;51.178;4.448;2022-07-29T11:56:59;27.70;87.10
25949;DHT22;13961;51.178;4.448;2022-07-29T11:59:25;27.70;86.40
25949;DHT22;13961;51.178;4.448;2022-07-29T12:01:56;27.80;87.40
25949;DHT22;13961;51.178;4.448;2022-07-29T12:04:22;27.60;88.60
25949;DHT22;13961;51.178;4.448;2022-07-29T12:06:53;27.50;89.80
25949;DHT22;13961;51.178;4.448;2022-07-29T12:09:19;27.50;89.50
25949;DHT22;13961;51.178;4.448;2022-07-29T12:11:46;27.70;89.20
25949;DHT22;13961;51.178;4.448;2022-07-29T12:14:31;28.00;87.30
25949;DHT22;13961;51.178;4.448;2022-07-29T12:16:58;28.00;88.70
25949;DHT22;13961;51.178;4.448;2022-07-29T12:19:24;28.10;87.40
25949;DHT22;13961;51.178;4.448;2022-07-29T12:21:51;28.40;88.60
25949;DHT22;13961;51.178;4.448;2022-07-29T12:24:18;28.40;87.60
25949;DHT22;13961;51.178;4.448;2022-07-29T12:26:51;28.30;88.60
25949;DHT22;13961;51.178;4.448;2022-07-29T12:29:17;28.50;88.10
25949;DHT22;13961;51.178;4.448;2022-07-29T12:31:44;28.20;88.60
25949;DHT22;13961;51.178;4.448;2022-07-29T12:34:11;28.50;89.60
25949;DHT22;13961;51.178;4.448;2022-07-29T12:36:37;28.70;87.10
25949;DHT22;13961;51.178;4.448;2022-07-29T12:39:04;28.50;87.10
25949;DHT22;13961;51.178;4.448;2022-07-29T12:41:29;28.70;86.50
25949;DHT22;13961;51.178;4.448;2022-07-29T12:43:55;28.70;87.80
25949;DHT22;13961;51.178;4.448;2022-07-29T12:46:21;28.90;88.40
25949;DHT22;13961;51.178;4.448;2022-07-29T12:48:51;28.40;84.20
25949;DHT22;13961;51.178;4.448;2022-07-29T12:51:34;28.60;86.10
25949;DHT22;13961;51.178;4.448;2022-07-29T12:54:06;28.50;86.30
25949;DHT22;13961;51.178;4.448;2022-07-29T12:56:32;28.40;86.20
25949;DHT22;13961;51.178;4.448;2022-07-29T12:58:58;28.70;84.10
25949;DHT22;13961;51.178;4.448;2022-07-29T13:01:24;28.50;83.90
25949;DHT22;13961;51.178;4.448;2022-07-29T13:03:54;28.60;84.30
25949;DHT22;13961;51.178;4.448;2022-07-29T13:11:47;28.50;84.00
25949;DHT22;13961;51.178;4.448;2022-07-29T13:14:36;28.30;85.00
25949;DHT22;13961;51.178;4.448;2022-07-29T13:17:09;28.50;83.70
25949;DHT22;13961;51.178;4.448;2022-07-29T13:19:38;27.90;86.20
25949;DHT22;13961;51.178;4.448;2022-07-29T13:22:06;28.10;85.20
25949;DHT22;13961;51.178;4.448;2022-07-29T13:24:32;28.20;84.90
25949;DHT22;13961;51.178;4.448;2022-07-29T13:26:58;28.30;84.90
25949;DHT22;13961;51.178;4.448;2022-07-29T13:29:23;28.40;84.80
25949;DHT22;13961;51.178;4.448;2022-07-29T13:31:49;28.40;84.10
25949;DHT22;13961;51.178;4.448;2022-07-29T13:34:15;28.40;84.00
25949;DHT22;13961;51.178;4.448;2022-07-29T13:36:41;28.40;83.60
25949;DHT22;13961;51.178;4.448;2022-07-29T13:39:06;28.70;82.00
25949;DHT22;13961;51.178;4.448;2022-07-29T13:41:32;28.60;85.30
25949;DHT22;13961;51.178;4.448;2022-07-29T13:43:58;28.80;86.20
25949;DHT22;13961;51.178;4.448;2022-07-29T13:46:23;28.90;83.60
25949;DHT22;13961;51.178;4.448;2022-07-29T13:48:49;28.90;84.60
25949;DHT22;13961;51.178;4.448;2022-07-29T13:51:15;29.00;83.50
25949;DHT22;13961;51.178;4.448;2022-07-29T13:53:41;29.00;84.40
25949;DHT22;13961;51.178;4.448;2022-07-29T13:56:07;28.60;82.60
25949;DHT22;13961;51.178;4.448;2022-07-29T13:58:33;28.50;83.70
25949;DHT22;13961;51.178;4.448;2022-07-29T14:00:59;28.20;83.50
25949;DHT22;13961;51.178;4.448;2022-07-29T14:03:24;27.80;84.20
25949;DHT22;13961;51.178;4.448;2022-07-29T14:05:50;28.10;85.30
25949;DHT22;13961;51.178;4.448;2022-07-29T14:08:16;28.30;83.60
25949;DHT22;13961;51.178;4.448;2022-07-29T14:10:42;28.40;84.20
25949;DHT22;13961;51.178;4.448;2022-07-29T14:13:07;28.40;81.70
25949;DHT22;13961;51.178;4.448;2022-07-29T14:15:33;28.30;82.10
25949;DHT22;13961;51.178;4.448;2022-07-29T14:17:59;28.20;84.20
25949;DHT22;13961;51.178;4.448;2022-07-29T14:20:25;28.30;84.70
25949;DHT22;13961;51.178;4.448;2022-07-29T14:22:50;28.30;84.10
25949;DHT22;13961;51.178;4.448;2022-07-29T14:25:16;28.00;84.60
25949;DHT22;13961;51.178;4.448;2022-07-29T14:27:43;27.60;86.60
25949;DHT22;13961;51.178;4.448;2022-07-29T14:30:09;27.50;85.20
25949;DHT22;13961;51.178;4.448;2022-07-29T14:32:35;27.60;86.30
25949;DHT22;13961;51.178;4.448;2022-07-29T14:35:00;27.80;86.10
25949;DHT22;13961;51.178;4.448;2022-07-29T14:37:26;27.80;86.80
25949;DHT22;13961;51.178;4.448;2022-07-29T14:39:51;27.80;85.30
25949;DHT22;13961;51.178;4.448;2022-07-29T14:42:17;28.00;86.80
25949;DHT22;13961;51.178;4.448;2022-07-29T14:44:43;28.10;84.90
25949;DHT22;13961;51.178;4.448;2022-07-29T14:47:08;28.00;85.20
25949;DHT22;13961;51.178;4.448;2022-07-29T14:49:35;27.70;87.00
25949;DHT22;13961;51.178;4.448;2022-07-29T14:52:00;27.90;86.40
25949;DHT22;13961;51.178;4.448;2022-07-29T14:54:26;28.00;85.50
25949;DHT22;13961;51.178;4.448;2022-07-29T14:56:51;28.20;86.00
25949;DHT22;13961;51.178;4.448;2022-07-29T14:59:20;28.00;85.20
25949;DHT22;13961;51.178;4.448;2022-07-29T15:01:46;27.90;85.30
25949;DHT22;13961;51.178;4.448;2022-07-29T15:04:11;27.80;85.70
25949;DHT22;13961;51.178;4.448;2022-07-29T15:06:37;27.90;84.60
25949;DHT22;13961;51.178;4.448;2022-07-29T15:09:03;28.00;85.90
25949;DHT22;13961;51.178;4.448;2022-07-29T15:11:28;28.00;86.70
25949;DHT22;13961;51.178;4.448;2022-07-29T15:13:54;27.80;87.70
25949;DHT22;13961;51.178;4.448;2022-07-29T15:16:20;27.90;88.20
25949;DHT22;13961;51.178;4.448;2022-07-29T15:18:45;28.10;87.70
25949;DHT22;13961;51.178;4.448;2022-07-29T15:21:11;28.20;86.70
25949;DHT22;13961;51.178;4.448;2022-07-29T15:23:36;28.30;87.40
25949;DHT22;13961;51.178;4.448;2022-07-29T15:26:03;28.30;86.10
25949;DHT22;13961;51.178;4.448;2022-07-29T15:28:29;28.40;85.80
25949;DHT22;13961;51.178;4.448;2022-07-29T15:30:55;28.40;86.40
25949;DHT22;13961;51.178;4.448;2022-07-29T15:33:20;28.30;85.80
25949;DHT22;13961;51.178;4.448;2022-07-29T15:35:46;28.10;84.70
25949;DHT22;13961;51.178;4.448;2022-07-29T15:38:11;27.90;85.90
25949;DHT22;13961;51.178;4.448;2022-07-29T15:40:38;27.70;85.60
25949;DHT22;13961;51.178;4.448;2022-07-29T15:43:06;28.00;85.60
25949;DHT22;13961;51.178;4.448;2022-07-29T15:45:40;27.90;85.50
25949;DHT22;13961;51.178;4.448;2022-07-29T15:48:07;27.10;88.00
25949;DHT22;13961;51.178;4.448;2022-07-29T15:50:33;27.20;88.20
25949;DHT22;13961;51.178;4.448;2022-07-29T15:52:59;27.40;87.40
25949;DHT22;13961;51.178;4.448;2022-07-29T15:55:25;27.50;87.40
25949;DHT22;13961;51.178;4.448;2022-07-29T15:57:51;27.30;89.20
25949;DHT22;13961;51.178;4.448;2022-07-29T16:00:16;27.30;89.10
25949;DHT22;13961;51.178;4.448;2022-07-29T16:02:42;27.30;88.60
25949;DHT22;13961;51.178;4.448;2022-07-29T16:05:08;27.30;88.50
25949;DHT22;13961;51.178;4.448;2022-07-29T16:07:34;27.50;89.00
25949;DHT22;13961;51.178;4.448;2022-07-29T16:10:00;27.80;88.70
25949;DHT22;13961;51.178;4.448;2022-07-29T16:12:25;27.70;87.70